createdAt,value
2019-03-12T00:00:21.894Z,99.90
2019-03-12T00:02:50.378Z,99.90
2019-03-12T00:05:18.778Z,99.90
2019-03-12T00:07:47.181Z,99.90
2019-03-12T00:10:15.582Z,99.90
2019-03-12T00:12:43.981Z,99.90
2019-03-12T00:15:12.694Z,99.90
2019-03-12T00:17:41.366Z,99.90
2019-03-12T00:20:09.770Z,99.90
2019-03-12T00:22:38.222Z,99.90
2019-03-12T00:25:07.686Z,99.90
2019-03-12T00:27:36.089Z,99.90
2019-03-12T00:30:07.233Z,99.90
2019-03-12T00:32:35.633Z,99.90
2019-03-12T00:35:05.973Z,99.90
2019-03-12T00:37:34.625Z,99.90
2019-03-12T00:40:03.468Z,99.90
2019-03-12T00:42:31.886Z,99.90
2019-03-12T00:45:00.476Z,99.90
2019-03-12T00:47:28.976Z,99.90
2019-03-12T00:49:57.374Z,99.90
2019-03-12T00:52:25.792Z,99.90
2019-03-12T00:54:54.191Z,99.90
2019-03-12T00:57:22.598Z,99.90
2019-03-12T00:59:50.998Z,99.90
2019-03-12T01:02:19.403Z,99.90
2019-03-12T01:04:47.802Z,99.90
2019-03-12T01:07:16.207Z,99.90
2019-03-12T01:09:44.617Z,99.90
2019-03-12T01:12:13.018Z,99.90
2019-03-12T01:14:41.433Z,99.90
2019-03-12T01:17:09.834Z,99.90
2019-03-12T01:19:38.238Z,99.90
2019-03-12T01:22:06.640Z,99.90
2019-03-12T01:24:35.039Z,99.90
2019-03-12T01:27:03.441Z,99.90
2019-03-12T01:29:31.841Z,99.90
2019-03-12T01:32:00.243Z,99.90
2019-03-12T01:34:28.917Z,99.90
2019-03-12T01:36:57.325Z,99.90
2019-03-12T01:39:25.727Z,99.90
2019-03-12T01:41:54.121Z,99.90
2019-03-12T01:44:24.199Z,99.90
2019-03-12T01:46:52.558Z,99.90
2019-03-12T01:49:20.966Z,99.90
2019-03-12T01:51:49.363Z,99.90
2019-03-12T01:54:17.774Z,99.90
2019-03-12T01:56:46.169Z,99.90
2019-03-12T01:59:14.621Z,99.90
2019-03-12T02:01:43.028Z,99.90
2019-03-12T02:04:11.437Z,99.90
2019-03-12T02:06:39.839Z,99.90
2019-03-12T02:09:08.493Z,99.90
2019-03-12T02:11:36.896Z,99.90
2019-03-12T02:14:22.269Z,99.90
2019-03-12T02:16:50.746Z,99.90
2019-03-12T02:19:19.279Z,99.90
2019-03-12T02:21:47.674Z,99.90
2019-03-12T02:24:16.076Z,99.90
2019-03-12T02:26:44.478Z,99.90
2019-03-12T02:29:12.878Z,99.90
2019-03-12T02:31:41.360Z,99.90
2019-03-12T02:34:10.107Z,99.90
2019-03-12T02:36:38.525Z,99.90
2019-03-12T02:39:08.458Z,99.90
2019-03-12T02:41:36.886Z,99.90
2019-03-12T02:44:05.267Z,99.90
2019-03-12T02:46:33.674Z,99.90
2019-03-12T02:49:02.082Z,99.90
2019-03-12T02:51:30.501Z,99.90
2019-03-12T02:53:58.896Z,99.90
2019-03-12T02:56:27.307Z,99.90
2019-03-12T02:58:55.703Z,99.90
2019-03-12T03:01:24.104Z,99.90
2019-03-12T03:03:52.518Z,99.90
2019-03-12T03:06:28.955Z,99.90
2019-03-12T03:08:57.358Z,99.90
2019-03-12T03:11:25.767Z,99.90
2019-03-12T03:13:54.171Z,99.90
2019-03-12T03:16:24.133Z,99.90
2019-03-12T03:18:52.712Z,99.90
2019-03-12T03:21:21.283Z,99.90
2019-03-12T03:23:49.689Z,99.90
2019-03-12T03:26:18.098Z,99.90
2019-03-12T03:28:46.503Z,99.90
2019-03-12T03:31:14.930Z,99.90
2019-03-12T03:33:43.387Z,99.90
2019-03-12T03:36:12.015Z,99.90
2019-03-12T03:38:40.419Z,99.90
2019-03-12T03:41:09.115Z,99.90
2019-03-12T03:43:37.512Z,99.90
2019-03-12T03:46:06.018Z,99.90
2019-03-12T03:48:34.760Z,99.90
2019-03-12T03:51:03.156Z,99.90
2019-03-12T03:53:31.570Z,99.90
2019-03-12T03:55:59.963Z,99.90
2019-03-12T03:58:28.416Z,99.90
2019-03-12T04:00:56.845Z,99.90
2019-03-12T04:03:25.254Z,99.90
2019-03-12T04:05:53.700Z,99.90
2019-03-12T04:08:22.136Z,99.90
2019-03-12T04:10:50.544Z,99.90
2019-03-12T04:13:19.106Z,99.90
2019-03-12T04:15:47.511Z,99.90
2019-03-12T04:18:15.918Z,99.90
2019-03-12T04:20:44.326Z,99.90
2019-03-12T04:23:15.829Z,99.90
2019-03-12T04:25:42.865Z,99.90
2019-03-12T04:28:11.270Z,99.90
2019-03-12T04:30:39.675Z,99.90
2019-03-12T04:33:13.991Z,99.90
2019-03-12T04:35:42.394Z,99.90
2019-03-12T04:38:10.810Z,99.90
2019-03-12T04:40:39.329Z,99.90
2019-03-12T04:43:07.820Z,99.90
2019-03-12T04:45:36.222Z,99.90
2019-03-12T04:48:04.638Z,99.90
2019-03-12T04:50:33.048Z,99.90
2019-03-12T04:53:01.445Z,99.90
2019-03-12T04:55:29.850Z,99.90
2019-03-12T04:57:58.254Z,99.90
2019-03-12T05:00:26.785Z,99.90
2019-03-12T05:02:55.186Z,99.90
2019-03-12T05:05:23.594Z,99.90
2019-03-12T05:07:51.998Z,99.90
2019-03-12T05:10:20.408Z,99.90
2019-03-12T05:12:48.810Z,99.90
2019-03-12T05:15:19.257Z,99.90
2019-03-12T05:17:47.710Z,99.90
2019-03-12T05:20:16.562Z,99.90
2019-03-12T05:22:44.957Z,99.90
2019-03-12T05:25:14.501Z,99.90
2019-03-12T05:27:43.244Z,99.90
2019-03-12T05:30:20.935Z,99.90
2019-03-12T05:32:49.339Z,99.90
2019-03-12T05:35:17.753Z,99.90
2019-03-12T05:37:46.158Z,99.90
2019-03-12T05:40:15.809Z,99.90
2019-03-12T05:42:44.369Z,99.90
2019-03-12T05:45:17.238Z,99.90
2019-03-12T05:47:45.705Z,99.90
2019-03-12T05:50:21.715Z,99.90
2019-03-12T05:52:50.107Z,99.90
2019-03-12T05:55:18.799Z,99.90
2019-03-12T05:57:47.199Z,99.90
2019-03-12T06:00:18.893Z,99.90
2019-03-12T06:02:47.294Z,99.90
2019-03-12T06:05:15.707Z,99.90
2019-03-12T06:07:44.113Z,99.90
2019-03-12T06:10:13.869Z,99.90
2019-03-12T06:12:42.573Z,99.90
2019-03-12T06:15:12.713Z,99.90
2019-03-12T06:17:41.114Z,99.90
2019-03-12T06:20:15.165Z,99.90
2019-03-12T06:22:45.018Z,99.90
2019-03-12T06:25:14.086Z,99.90
2019-03-12T06:27:42.686Z,99.90
2019-03-12T06:30:18.301Z,99.90
2019-03-12T06:32:50.795Z,99.90
2019-03-12T06:35:26.849Z,99.90
2019-03-12T06:37:59.565Z,99.90
2019-03-12T06:40:29.610Z,99.90
2019-03-12T06:43:11.954Z,99.90
2019-03-12T06:45:57.366Z,99.90
2019-03-12T06:48:27.412Z,99.90
2019-03-12T06:50:57.534Z,99.90
2019-03-12T06:53:43.818Z,99.90
2019-03-12T06:56:29.117Z,99.90
2019-03-12T06:59:17.350Z,99.90
2019-03-12T07:01:59.375Z,99.90
2019-03-12T07:04:29.418Z,99.90
2019-03-12T07:07:12.784Z,99.90
2019-03-12T07:09:43.042Z,99.90
2019-03-12T07:12:13.086Z,99.90
2019-03-12T07:14:43.130Z,99.90
2019-03-12T07:17:13.183Z,99.90
2019-03-12T07:19:51.738Z,99.90
2019-03-12T07:22:34.069Z,99.90
2019-03-12T07:25:09.651Z,99.90
2019-03-12T07:27:39.695Z,99.90
2019-03-12T07:30:17.222Z,99.90
2019-03-12T07:32:47.274Z,99.90
2019-03-12T07:35:32.574Z,99.90
2019-03-12T07:38:02.632Z,99.90
2019-03-12T07:40:49.073Z,99.90
2019-03-12T07:43:31.138Z,99.90
2019-03-12T07:46:13.201Z,99.90
2019-03-12T07:48:52.158Z,99.90
2019-03-12T07:51:22.202Z,99.90
2019-03-12T07:54:04.559Z,85.20
2019-03-12T07:56:40.630Z,74.50
2019-03-12T07:59:22.722Z,62.90
2019-03-12T08:02:08.995Z,54.30
2019-03-12T08:04:39.046Z,47.60
2019-03-12T08:07:09.118Z,45.80
2019-03-12T08:09:39.166Z,44.80
2019-03-12T08:12:21.650Z,42.90
2019-03-12T08:14:51.708Z,42.50
2019-03-12T08:17:21.758Z,40.20
2019-03-12T08:20:10.547Z,37.70
2019-03-12T08:22:39.662Z,39.80
2019-03-12T08:25:10.279Z,40.00
2019-03-12T08:27:49.220Z,38.80
2019-03-12T08:30:19.266Z,38.40
2019-03-12T08:32:49.338Z,38.30
2019-03-12T08:35:19.401Z,37.40
2019-03-12T08:38:01.378Z,40.00
2019-03-12T08:40:51.962Z,42.60
2019-03-12T08:43:18.223Z,41.70
2019-03-12T08:46:04.539Z,39.10
2019-03-12T08:48:37.023Z,38.00
2019-03-12T08:51:16.350Z,37.70
2019-03-12T08:53:46.403Z,40.70
2019-03-12T08:56:16.458Z,41.60
2019-03-12T08:59:01.218Z,40.70
2019-03-12T09:01:41.902Z,40.80
2019-03-12T09:04:28.494Z,44.20
2019-03-12T09:07:16.614Z,43.90
2019-03-12T09:09:58.598Z,45.10
2019-03-12T09:12:34.486Z,44.70
2019-03-12T09:15:10.727Z,46.20
2019-03-12T09:17:43.686Z,43.10
2019-03-12T09:20:16.699Z,41.80
2019-03-12T09:22:46.751Z,42.70
2019-03-12T09:25:25.545Z,45.30
2019-03-12T09:28:12.310Z,45.40
2019-03-12T09:30:58.673Z,44.10
2019-03-12T09:33:40.939Z,42.60
2019-03-12T09:36:22.968Z,39.30
2019-03-12T09:38:59.234Z,39.10
2019-03-12T09:41:29.351Z,39.00
2019-03-12T09:44:02.109Z,38.70
2019-03-12T09:46:48.410Z,38.40
2019-03-12T09:49:18.449Z,41.00
2019-03-12T09:54:21.235Z,47.00
2019-03-12T09:56:51.282Z,46.50
2019-03-12T09:59:27.089Z,44.90
2019-03-12T10:02:06.116Z,46.50
2019-03-12T10:04:36.159Z,43.60
2019-03-12T10:07:24.477Z,44.90
2019-03-12T10:09:57.250Z,45.70
2019-03-12T10:12:45.361Z,45.70
2019-03-12T10:15:18.350Z,43.90
2019-03-12T10:17:48.682Z,41.50
2019-03-12T10:20:36.807Z,38.90
2019-03-12T10:23:23.602Z,40.20
2019-03-12T10:25:56.571Z,39.80
2019-03-12T10:28:29.323Z,38.20
2019-03-12T10:31:11.452Z,36.70
2019-03-12T10:33:44.217Z,38.90
2019-03-12T10:36:14.587Z,39.50
2019-03-12T10:39:24.341Z,43.00
2019-03-12T10:42:09.630Z,46.70
2019-03-12T10:44:39.702Z,46.60
2019-03-12T10:47:15.718Z,45.40
2019-03-12T10:49:44.142Z,44.30
2019-03-12T10:52:12.538Z,40.90
2019-03-12T10:54:40.945Z,39.50
2019-03-12T10:57:09.622Z,36.10
2019-03-12T10:59:38.138Z,35.70
2019-03-12T11:02:06.987Z,36.40
2019-03-12T11:04:35.389Z,39.20
2019-03-12T11:07:15.809Z,41.50
2019-03-12T11:09:33.994Z,41.80
2019-03-12T11:12:02.397Z,40.60
2019-03-12T11:14:30.817Z,38.60
2019-03-12T11:16:59.329Z,35.30
2019-03-12T11:19:27.787Z,35.60
2019-03-12T11:21:56.194Z,37.60
2019-03-12T11:24:24.602Z,36.20
2019-03-12T11:26:53.007Z,36.90
2019-03-12T11:29:21.410Z,37.90
2019-03-12T11:31:49.840Z,40.90
2019-03-12T11:34:18.249Z,41.90
2019-03-12T11:36:46.666Z,44.70
2019-03-12T11:39:15.223Z,45.10
2019-03-12T11:41:43.663Z,48.00
2019-03-12T11:44:12.116Z,43.90
2019-03-12T11:46:44.277Z,41.90
2019-03-12T11:49:10.694Z,42.80
2019-03-12T11:51:39.104Z,44.40
2019-03-12T11:54:07.517Z,43.00
2019-03-12T11:57:01.090Z,42.60
2019-03-12T11:59:29.499Z,44.20
2019-03-12T12:01:57.903Z,45.30
2019-03-12T12:04:26.473Z,48.40
2019-03-12T12:06:54.879Z,49.40
2019-03-12T12:09:23.452Z,47.70
2019-03-12T12:11:52.851Z,43.90
2019-03-12T12:14:21.394Z,44.60
2019-03-12T12:16:49.830Z,41.90
2019-03-12T12:19:18.233Z,43.00
2019-03-12T12:21:46.653Z,42.90
2019-03-12T12:24:15.066Z,43.20
2019-03-12T12:26:43.489Z,39.90
2019-03-12T12:29:11.895Z,44.70
2019-03-12T12:31:40.310Z,41.20
2019-03-12T12:34:08.717Z,41.90
2019-03-12T12:36:37.133Z,42.60
2019-03-12T12:39:06.578Z,44.70
2019-03-12T12:41:35.009Z,41.70
2019-03-12T12:44:03.487Z,42.00
2019-03-12T12:46:31.893Z,42.70
2019-03-12T12:49:00.300Z,41.70
2019-03-12T12:51:28.718Z,45.20
2019-03-12T12:53:57.127Z,44.10
2019-03-12T12:56:25.530Z,44.40
2019-03-12T12:58:53.942Z,45.70
2019-03-12T13:01:22.429Z,42.50
2019-03-12T13:03:50.940Z,43.90
2019-03-12T13:06:19.337Z,43.20
2019-03-12T13:08:47.745Z,41.50
2019-03-12T13:11:16.159Z,41.00
2019-03-12T13:13:44.586Z,42.70
2019-03-12T13:16:24.624Z,43.10
2019-03-12T13:18:43.467Z,43.60
2019-03-12T13:21:11.866Z,43.80
2019-03-12T13:23:58.578Z,42.10
2019-03-12T13:26:27.181Z,41.00
2019-03-12T13:28:55.676Z,44.60
2019-03-12T13:31:24.619Z,40.70
2019-03-12T13:33:53.095Z,40.60
2019-03-12T13:36:21.542Z,41.30
2019-03-12T13:38:50.015Z,41.20
2019-03-12T13:41:18.543Z,42.10
2019-03-12T13:43:47.050Z,43.50
2019-03-12T13:46:15.486Z,41.70
2019-03-12T13:48:44.278Z,42.00
2019-03-12T13:51:12.861Z,41.60
2019-03-12T13:53:41.410Z,43.20
2019-03-12T13:56:09.857Z,43.30
2019-03-12T13:58:38.278Z,44.00
2019-03-12T14:01:06.790Z,42.70
2019-03-12T14:03:35.202Z,43.40
2019-03-12T14:06:03.607Z,43.60
2019-03-12T14:08:32.094Z,44.10
2019-03-12T14:11:00.575Z,45.60
2019-03-12T14:13:29.049Z,44.30
2019-03-12T14:15:57.466Z,42.40
2019-03-12T14:18:25.987Z,43.00
2019-03-12T14:21:00.074Z,42.20
2019-03-12T14:23:37.738Z,42.10
2019-03-12T14:26:06.134Z,42.20
2019-03-12T14:28:34.538Z,41.10
2019-03-12T14:31:03.115Z,42.30
2019-03-12T14:33:31.525Z,43.00
2019-03-12T14:36:00.007Z,42.70
2019-03-12T14:38:28.558Z,41.30
2019-03-12T14:40:57.105Z,41.70
2019-03-12T14:43:25.695Z,40.40
2019-03-12T14:45:54.285Z,41.70
2019-03-12T14:48:42.617Z,43.20
2019-03-12T14:51:14.379Z,42.40
2019-03-12T14:53:44.823Z,43.10
2019-03-12T14:56:13.230Z,43.00
2019-03-12T14:58:41.634Z,43.10
2019-03-12T15:01:10.037Z,43.90
2019-03-12T15:03:38.441Z,45.30
2019-03-12T15:06:07.094Z,44.20
2019-03-12T15:08:35.495Z,43.70
2019-03-12T15:11:03.903Z,43.30
2019-03-12T15:13:32.298Z,43.50
2019-03-12T15:16:00.712Z,43.90
2019-03-12T15:18:29.112Z,43.80
2019-03-12T15:20:57.518Z,44.20
2019-03-12T15:23:26.041Z,44.70
2019-03-12T15:25:54.452Z,42.70
2019-03-12T15:28:22.862Z,42.10
2019-03-12T15:30:51.270Z,42.70
2019-03-12T15:33:19.670Z,43.50
2019-03-12T15:35:48.154Z,43.30
2019-03-12T15:38:16.591Z,43.50
2019-03-12T15:40:45.013Z,44.80
2019-03-12T15:43:13.478Z,44.30
2019-03-12T15:45:41.885Z,44.40
2019-03-12T15:48:10.298Z,45.60
2019-03-12T15:50:38.694Z,45.00
2019-03-12T15:53:07.395Z,45.80
2019-03-12T15:55:36.050Z,45.30
2019-03-12T15:58:04.457Z,45.90
2019-03-12T16:00:32.857Z,46.80
2019-03-12T16:03:01.262Z,46.80
2019-03-12T16:05:29.658Z,46.50
2019-03-12T16:07:58.064Z,46.50
2019-03-12T16:10:26.466Z,44.90
2019-03-12T16:12:54.882Z,45.30
2019-03-12T16:15:23.286Z,44.90
2019-03-12T16:17:51.858Z,45.50
2019-03-12T16:20:22.375Z,45.70
2019-03-12T16:22:50.779Z,45.60
2019-03-12T16:25:19.282Z,46.30
2019-03-12T16:27:47.693Z,46.60
2019-03-12T16:30:18.303Z,46.20
2019-03-12T16:32:46.702Z,46.90
2019-03-12T16:35:15.118Z,47.20
2019-03-12T16:37:43.517Z,46.60
2019-03-12T16:40:14.530Z,47.40
2019-03-12T16:42:42.950Z,47.80
2019-03-12T16:45:12.954Z,47.90
2019-03-12T16:47:41.365Z,48.10
2019-03-12T16:50:12.471Z,48.20
2019-03-12T16:52:40.886Z,47.90
2019-03-12T16:55:11.334Z,47.20
2019-03-12T16:57:39.758Z,47.50
2019-03-12T17:00:13.149Z,48.30
2019-03-12T17:02:41.554Z,48.30
2019-03-12T17:05:11.596Z,48.80
2019-03-12T17:07:40.003Z,49.30
2019-03-12T17:10:14.269Z,49.60
2019-03-12T17:12:42.828Z,50.30
2019-03-12T17:15:16.687Z,50.60
2019-03-12T17:17:45.081Z,50.30
2019-03-12T17:20:14.838Z,51.80
2019-03-12T17:22:43.239Z,51.20
2019-03-12T17:25:12.020Z,50.30
2019-03-12T17:27:40.593Z,50.90
2019-03-12T17:30:17.342Z,50.10
2019-03-12T17:32:45.741Z,49.60
2019-03-12T17:35:31.877Z,50.10
2019-03-12T17:38:00.294Z,50.30
2019-03-12T17:40:28.700Z,50.20
2019-03-12T17:42:57.106Z,50.10
2019-03-12T17:45:25.527Z,49.70
2019-03-12T17:47:53.935Z,49.80
2019-03-12T17:50:22.414Z,50.40
2019-03-12T17:52:50.821Z,50.10
2019-03-12T17:55:19.302Z,50.70
2019-03-12T17:57:50.447Z,49.60
2019-03-12T18:00:20.567Z,49.80
2019-03-12T18:02:48.975Z,49.90
2019-03-12T18:05:17.627Z,50.10
2019-03-12T18:07:46.021Z,50.50
2019-03-12T18:10:18.465Z,50.00
2019-03-12T18:12:47.209Z,50.20
2019-03-12T18:15:19.316Z,50.10
2019-03-12T18:17:47.896Z,50.80
2019-03-12T18:20:20.338Z,51.00
2019-03-12T18:22:48.745Z,51.10
2019-03-12T18:25:20.407Z,52.20
2019-03-12T18:27:48.859Z,52.90
2019-03-12T18:30:17.998Z,53.10
2019-03-12T18:32:46.479Z,53.50
2019-03-12T18:35:15.137Z,54.10
2019-03-12T18:37:43.713Z,53.60
2019-03-12T18:40:15.111Z,54.70
2019-03-12T18:42:43.527Z,54.50
2019-03-12T18:45:14.515Z,54.00
2019-03-12T18:47:42.922Z,54.70
2019-03-12T18:50:13.658Z,54.50
2019-03-12T18:52:42.167Z,54.80
2019-03-12T18:55:16.351Z,54.70
2019-03-12T18:57:44.865Z,54.00
2019-03-12T19:00:13.639Z,54.10
2019-03-12T19:02:42.044Z,54.30
2019-03-12T19:05:10.522Z,54.20
2019-03-12T19:07:38.993Z,54.70
2019-03-12T19:10:13.178Z,54.50
2019-03-12T19:12:40.597Z,54.70
2019-03-12T19:15:11.439Z,55.00
2019-03-12T19:17:39.841Z,54.10
2019-03-12T19:20:13.265Z,54.20
2019-03-12T19:22:41.670Z,54.10
2019-03-12T19:25:15.735Z,53.50
2019-03-12T19:27:44.138Z,53.20
2019-03-12T19:30:14.974Z,53.30
2019-03-12T19:32:47.979Z,52.40
2019-03-12T19:35:27.310Z,52.20
2019-03-12T19:37:56.551Z,50.80
2019-03-12T19:40:37.119Z,50.60
2019-03-12T19:43:05.783Z,50.90
2019-03-12T19:45:34.197Z,50.00
2019-03-12T19:48:02.701Z,49.70
2019-03-12T19:50:31.106Z,50.20
2019-03-12T19:52:59.556Z,49.10
2019-03-12T19:55:39.614Z,50.10
2019-03-12T19:58:08.031Z,48.90
2019-03-12T20:00:36.503Z,48.90
2019-03-12T20:03:10.745Z,48.80
2019-03-12T20:05:35.405Z,48.40
2019-03-12T20:08:04.165Z,47.90
2019-03-12T20:10:54.899Z,47.30
2019-03-12T20:13:32.430Z,47.20
2019-03-12T20:16:15.754Z,47.90
2019-03-12T20:18:56.261Z,47.80
2019-03-12T20:21:44.370Z,48.30
2019-03-12T20:24:28.028Z,48.00
2019-03-12T20:27:25.289Z,48.40
2019-03-12T20:30:05.525Z,48.70
2019-03-12T20:32:51.946Z,48.60
2019-03-12T20:35:38.428Z,49.20
2019-03-12T20:38:18.527Z,49.00
2019-03-12T20:41:06.579Z,49.30
2019-03-12T20:43:57.886Z,49.00
2019-03-12T20:46:58.420Z,49.40
2019-03-12T20:50:03.319Z,49.60
2019-03-12T20:52:43.515Z,49.90
2019-03-12T20:55:31.729Z,48.80
2019-03-12T20:58:19.694Z,49.00
2019-03-12T21:00:59.653Z,48.50
2019-03-12T21:04:01.797Z,47.80
2019-03-12T21:07:07.015Z,48.10
2019-03-12T21:09:59.691Z,46.60
2019-03-12T21:12:37.042Z,47.00
2019-03-12T21:15:13.833Z,46.70
2019-03-12T21:18:11.294Z,46.60
2019-03-12T21:21:05.175Z,46.00
2019-03-12T21:23:53.153Z,45.80
2019-03-12T21:26:56.578Z,45.90
2019-03-12T21:29:42.572Z,45.70
2019-03-12T21:32:12.414Z,45.50
2019-03-12T21:34:40.870Z,46.20
2019-03-12T21:37:09.517Z,45.70
2019-03-12T21:39:38.314Z,45.60
2019-03-12T21:42:07.121Z,45.30
2019-03-12T21:44:35.702Z,45.70
2019-03-12T21:47:04.345Z,45.60
2019-03-12T21:49:32.918Z,45.30
2019-03-12T21:52:01.320Z,45.50
2019-03-12T21:54:30.109Z,45.50
2019-03-12T21:56:58.524Z,45.60
2019-03-12T21:59:26.930Z,46.40
2019-03-12T22:01:55.338Z,46.00
2019-03-12T22:04:23.742Z,46.20
2019-03-12T22:06:52.149Z,46.40
2019-03-12T22:09:20.722Z,46.40
2019-03-12T22:11:49.121Z,47.10
2019-03-12T22:14:17.566Z,46.80
2019-03-12T22:16:47.246Z,47.00
2019-03-12T22:19:15.641Z,47.40
2019-03-12T22:21:45.694Z,48.00
2019-03-12T22:24:15.983Z,47.40
2019-03-12T22:26:44.390Z,47.80
2019-03-12T22:29:12.791Z,48.20
2019-03-12T22:31:41.202Z,48.20
2019-03-12T22:34:09.606Z,48.60
2019-03-12T22:36:38.115Z,49.40
2019-03-12T22:39:06.790Z,49.00
2019-03-12T22:41:35.202Z,49.00
2019-03-12T22:44:03.607Z,49.40
2019-03-12T22:46:32.029Z,49.40
2019-03-12T22:49:00.496Z,49.60
2019-03-12T22:51:28.898Z,49.90
2019-03-12T22:53:57.302Z,50.40
2019-03-12T22:56:25.702Z,50.80
2019-03-12T22:58:54.111Z,50.70
2019-03-12T23:01:22.590Z,51.00
2019-03-12T23:03:51.000Z,50.40
2019-03-12T23:06:19.403Z,49.90
2019-03-12T23:08:47.841Z,49.60
2019-03-12T23:11:16.613Z,49.00
2019-03-12T23:13:45.039Z,48.90
2019-03-12T23:16:13.509Z,48.60
2019-03-12T23:18:42.070Z,47.90
2019-03-12T23:21:10.470Z,47.40
2019-03-12T23:23:38.899Z,47.90
2019-03-12T23:26:07.286Z,47.00
2019-03-12T23:28:35.691Z,46.70
2019-03-12T23:31:04.089Z,46.60
2019-03-12T23:33:32.493Z,48.50
2019-03-12T23:36:01.005Z,52.50
2019-03-12T23:38:29.444Z,56.20
2019-03-12T23:40:57.901Z,61.30
2019-03-12T23:43:26.309Z,74.30
2019-03-12T23:45:54.717Z,68.70
2019-03-12T23:48:23.364Z,90.60
2019-03-12T23:50:51.838Z,92.60
2019-03-12T23:53:20.246Z,99.90
2019-03-12T23:55:48.810Z,99.90
2019-03-12T23:58:17.261Z,99.90
